sensor_id;sensor_type;location;lat;lon;timestamp;P1;durP1;ratioP1;P2;durP2;ratioP2
6987;SDS011;3534;49.960;8.018;2022-11-11T00:02:04;27.13;;;12.97;;
6987;SDS011;3534;49.960;8.018;2022-11-11T00:04:31;21.60;;;11.50;;
6987;SDS011;3534;49.960;8.018;2022-11-11T00:06:57;22.60;;;10.80;;
6987;SDS011;3534;49.960;8.018;2022-11-11T00:09:24;19.83;;;10.60;;
6987;SDS011;3534;49.960;8.018;2022-11-11T00:11:51;23.70;;;10.80;;
6987;SDS011;3534;49.960;8.018;2022-11-11T00:14:18;33.57;;;15.30;;
6987;SDS011;3534;49.960;8.018;2022-11-11T00:16:44;25.67;;;12.00;;
6987;SDS011;3534;49.960;8.018;2022-11-11T00:19:30;19.47;;;11.20;;
6987;SDS011;3534;49.960;8.018;2022-11-11T00:22:18;15.70;;;9.53;;
6987;SDS011;3534;49.960;8.018;2022-11-11T00:25:03;20.90;;;12.07;;
6987;SDS011;3534;49.960;8.018;2022-11-11T00:27:33;30.33;;;12.60;;
6987;SDS011;3534;49.960;8.018;2022-11-11T00:30:01;21.13;;;12.03;;
6987;SDS011;3534;49.960;8.018;2022-11-11T00:32:27;25.50;;;12.17;;
6987;SDS011;3534;49.960;8.018;2022-11-11T00:34:59;25.77;;;12.60;;
6987;SDS011;3534;49.960;8.018;2022-11-11T00:37:44;25.10;;;12.73;;
6987;SDS011;3534;49.960;8.018;2022-11-11T00:40:13;21.87;;;12.73;;
6987;SDS011;3534;49.960;8.018;2022-11-11T00:42:40;24.53;;;12.80;;
6987;SDS011;3534;49.960;8.018;2022-11-11T00:45:07;22.87;;;11.67;;
6987;SDS011;3534;49.960;8.018;2022-11-11T00:47:35;33.53;;;12.23;;
6987;SDS011;3534;49.960;8.018;2022-11-11T00:50:21;20.43;;;11.47;;
6987;SDS011;3534;49.960;8.018;2022-11-11T00:53:10;23.53;;;12.23;;
6987;SDS011;3534;49.960;8.018;2022-11-11T00:55:37;19.93;;;11.40;;
6987;SDS011;3534;49.960;8.018;2022-11-11T00:58:04;22.20;;;11.90;;
6987;SDS011;3534;49.960;8.018;2022-11-11T01:00:31;25.83;;;12.53;;
6987;SDS011;3534;49.960;8.018;2022-11-11T01:02:58;28.23;;;12.63;;
6987;SDS011;3534;49.960;8.018;2022-11-11T01:05:26;30.40;;;14.67;;
6987;SDS011;3534;49.960;8.018;2022-11-11T01:07:53;30.00;;;13.70;;
6987;SDS011;3534;49.960;8.018;2022-11-11T01:10:24;28.93;;;13.00;;
6987;SDS011;3534;49.960;8.018;2022-11-11T01:13:04;24.37;;;12.20;;
6987;SDS011;3534;49.960;8.018;2022-11-11T01:15:38;25.47;;;12.97;;
6987;SDS011;3534;49.960;8.018;2022-11-11T01:18:05;24.07;;;11.90;;
6987;SDS011;3534;49.960;8.018;2022-11-11T01:20:34;30.10;;;15.40;;
6987;SDS011;3534;49.960;8.018;2022-11-11T01:23:02;27.40;;;12.50;;
6987;SDS011;3534;49.960;8.018;2022-11-11T01:25:31;25.53;;;12.77;;
6987;SDS011;3534;49.960;8.018;2022-11-11T01:27:59;28.13;;;13.20;;
6987;SDS011;3534;49.960;8.018;2022-11-11T01:30:26;32.73;;;13.33;;
6987;SDS011;3534;49.960;8.018;2022-11-11T01:32:53;25.60;;;12.63;;
6987;SDS011;3534;49.960;8.018;2022-11-11T01:35:20;25.23;;;13.03;;
6987;SDS011;3534;49.960;8.018;2022-11-11T01:37:48;23.43;;;12.50;;
6987;SDS011;3534;49.960;8.018;2022-11-11T01:40:15;33.03;;;13.50;;
6987;SDS011;3534;49.960;8.018;2022-11-11T01:42:46;25.77;;;12.17;;
6987;SDS011;3534;49.960;8.018;2022-11-11T01:48:12;36.50;;;13.57;;
6987;SDS011;3534;49.960;8.018;2022-11-11T01:50:59;27.00;;;13.07;;
6987;SDS011;3534;49.960;8.018;2022-11-11T01:53:29;34.07;;;14.07;;
6987;SDS011;3534;49.960;8.018;2022-11-11T01:55:57;27.30;;;12.83;;
6987;SDS011;3534;49.960;8.018;2022-11-11T01:58:26;30.90;;;14.87;;
6987;SDS011;3534;49.960;8.018;2022-11-11T02:00:54;27.17;;;14.10;;
6987;SDS011;3534;49.960;8.018;2022-11-11T02:03:21;34.47;;;13.70;;
6987;SDS011;3534;49.960;8.018;2022-11-11T02:05:51;25.57;;;13.23;;
6987;SDS011;3534;49.960;8.018;2022-11-11T02:08:21;32.50;;;13.50;;
6987;SDS011;3534;49.960;8.018;2022-11-11T02:10:59;23.27;;;13.07;;
6987;SDS011;3534;49.960;8.018;2022-11-11T02:13:29;29.23;;;13.53;;
6987;SDS011;3534;49.960;8.018;2022-11-11T02:16:14;25.17;;;11.90;;
6987;SDS011;3534;49.960;8.018;2022-11-11T02:18:41;26.30;;;14.40;;
6987;SDS011;3534;49.960;8.018;2022-11-11T02:21:09;29.53;;;13.37;;
6987;SDS011;3534;49.960;8.018;2022-11-11T02:23:42;27.77;;;13.10;;
6987;SDS011;3534;49.960;8.018;2022-11-11T02:26:14;31.03;;;13.10;;
6987;SDS011;3534;49.960;8.018;2022-11-11T02:28:42;30.00;;;13.37;;
6987;SDS011;3534;49.960;8.018;2022-11-11T02:31:10;24.50;;;13.23;;
6987;SDS011;3534;49.960;8.018;2022-11-11T02:33:37;26.90;;;13.37;;
6987;SDS011;3534;49.960;8.018;2022-11-11T02:36:04;42.13;;;13.73;;
6987;SDS011;3534;49.960;8.018;2022-11-11T02:38:35;38.73;;;13.83;;
6987;SDS011;3534;49.960;8.018;2022-11-11T02:41:02;31.40;;;14.27;;
6987;SDS011;3534;49.960;8.018;2022-11-11T02:43:48;29.20;;;13.40;;
6987;SDS011;3534;49.960;8.018;2022-11-11T02:46:15;28.30;;;13.63;;
6987;SDS011;3534;49.960;8.018;2022-11-11T02:48:42;33.17;;;10.90;;
6987;SDS011;3534;49.960;8.018;2022-11-11T02:51:08;26.97;;;12.03;;
6987;SDS011;3534;49.960;8.018;2022-11-11T02:53:35;26.80;;;11.33;;
6987;SDS011;3534;49.960;8.018;2022-11-11T02:56:02;24.00;;;11.47;;
6987;SDS011;3534;49.960;8.018;2022-11-11T02:58:29;23.07;;;11.23;;
6987;SDS011;3534;49.960;8.018;2022-11-11T03:00:57;44.40;;;12.47;;
6987;SDS011;3534;49.960;8.018;2022-11-11T03:03:24;25.50;;;11.40;;
6987;SDS011;3534;49.960;8.018;2022-11-11T03:05:51;24.43;;;11.60;;
6987;SDS011;3534;49.960;8.018;2022-11-11T03:08:18;22.50;;;12.30;;
6987;SDS011;3534;49.960;8.018;2022-11-11T03:10:44;22.47;;;11.80;;
6987;SDS011;3534;49.960;8.018;2022-11-11T03:13:11;19.57;;;10.23;;
6987;SDS011;3534;49.960;8.018;2022-11-11T03:15:38;21.03;;;10.37;;
6987;SDS011;3534;49.960;8.018;2022-11-11T03:18:06;22.97;;;11.27;;
6987;SDS011;3534;49.960;8.018;2022-11-11T03:20:31;22.83;;;10.30;;
6987;SDS011;3534;49.960;8.018;2022-11-11T03:23:16;20.80;;;9.70;;
6987;SDS011;3534;49.960;8.018;2022-11-11T03:25:43;22.60;;;10.13;;
6987;SDS011;3534;49.960;8.018;2022-11-11T03:28:11;33.57;;;13.70;;
6987;SDS011;3534;49.960;8.018;2022-11-11T03:30:40;23.97;;;10.00;;
6987;SDS011;3534;49.960;8.018;2022-11-11T03:33:09;21.63;;;9.90;;
6987;SDS011;3534;49.960;8.018;2022-11-11T03:35:36;21.90;;;10.10;;
6987;SDS011;3534;49.960;8.018;2022-11-11T03:38:04;26.03;;;9.80;;
6987;SDS011;3534;49.960;8.018;2022-11-11T03:40:43;19.07;;;9.13;;
6987;SDS011;3534;49.960;8.018;2022-11-11T03:43:10;20.83;;;10.87;;
6987;SDS011;3534;49.960;8.018;2022-11-11T03:45:38;23.97;;;10.83;;
6987;SDS011;3534;49.960;8.018;2022-11-11T03:48:05;25.13;;;11.30;;
6987;SDS011;3534;49.960;8.018;2022-11-11T03:50:34;21.20;;;10.23;;
6987;SDS011;3534;49.960;8.018;2022-11-11T03:53:00;21.10;;;10.97;;
6987;SDS011;3534;49.960;8.018;2022-11-11T03:55:28;22.00;;;10.63;;
6987;SDS011;3534;49.960;8.018;2022-11-11T03:57:55;21.53;;;10.20;;
6987;SDS011;3534;49.960;8.018;2022-11-11T04:00:22;16.53;;;9.87;;
6987;SDS011;3534;49.960;8.018;2022-11-11T04:02:50;22.43;;;10.83;;
6987;SDS011;3534;49.960;8.018;2022-11-11T04:05:36;21.80;;;10.73;;
6987;SDS011;3534;49.960;8.018;2022-11-11T04:08:20;41.17;;;9.07;;
6987;SDS011;3534;49.960;8.018;2022-11-11T04:11:05;24.43;;;9.47;;
6987;SDS011;3534;49.960;8.018;2022-11-11T04:13:34;20.97;;;10.20;;
6987;SDS011;3534;49.960;8.018;2022-11-11T04:16:19;22.50;;;10.40;;
6987;SDS011;3534;49.960;8.018;2022-11-11T04:18:45;20.10;;;9.90;;
6987;SDS011;3534;49.960;8.018;2022-11-11T04:21:31;22.63;;;10.53;;
6987;SDS011;3534;49.960;8.018;2022-11-11T04:24:10;24.90;;;11.30;;
6987;SDS011;3534;49.960;8.018;2022-11-11T04:26:55;34.17;;;11.33;;
6987;SDS011;3534;49.960;8.018;2022-11-11T04:29:23;28.60;;;9.17;;
6987;SDS011;3534;49.960;8.018;2022-11-11T04:31:55;22.27;;;10.10;;
6987;SDS011;3534;49.960;8.018;2022-11-11T04:34:41;19.27;;;10.77;;
6987;SDS011;3534;49.960;8.018;2022-11-11T04:37:09;25.43;;;9.20;;
6987;SDS011;3534;49.960;8.018;2022-11-11T04:39:36;22.47;;;9.97;;
6987;SDS011;3534;49.960;8.018;2022-11-11T04:42:29;22.60;;;10.47;;
6987;SDS011;3534;49.960;8.018;2022-11-11T04:44:57;17.70;;;9.27;;
6987;SDS011;3534;49.960;8.018;2022-11-11T04:47:51;23.77;;;8.77;;
6987;SDS011;3534;49.960;8.018;2022-11-11T04:50:19;20.30;;;9.47;;
6987;SDS011;3534;49.960;8.018;2022-11-11T04:52:47;21.87;;;9.20;;
6987;SDS011;3534;49.960;8.018;2022-11-11T04:55:14;23.77;;;9.73;;
6987;SDS011;3534;49.960;8.018;2022-11-11T04:57:59;19.87;;;9.50;;
6987;SDS011;3534;49.960;8.018;2022-11-11T05:00:26;20.13;;;9.70;;
6987;SDS011;3534;49.960;8.018;2022-11-11T05:02:52;16.60;;;9.20;;
6987;SDS011;3534;49.960;8.018;2022-11-11T05:05:37;29.47;;;9.30;;
6987;SDS011;3534;49.960;8.018;2022-11-11T05:08:19;19.20;;;8.57;;
6987;SDS011;3534;49.960;8.018;2022-11-11T05:11:04;32.90;;;9.73;;
6987;SDS011;3534;49.960;8.018;2022-11-11T05:13:31;17.90;;;8.50;;
6987;SDS011;3534;49.960;8.018;2022-11-11T05:16:17;22.43;;;10.00;;
6987;SDS011;3534;49.960;8.018;2022-11-11T05:19:02;18.83;;;9.00;;
6987;SDS011;3534;49.960;8.018;2022-11-11T05:21:47;41.80;;;10.27;;
6987;SDS011;3534;49.960;8.018;2022-11-11T05:24:18;17.47;;;8.40;;
6987;SDS011;3534;49.960;8.018;2022-11-11T05:27:02;19.60;;;8.83;;
6987;SDS011;3534;49.960;8.018;2022-11-11T05:29:29;18.50;;;9.30;;
6987;SDS011;3534;49.960;8.018;2022-11-11T05:31:55;18.20;;;8.97;;
6987;SDS011;3534;49.960;8.018;2022-11-11T05:34:22;23.13;;;7.77;;
6987;SDS011;3534;49.960;8.018;2022-11-11T05:36:49;16.77;;;8.40;;
6987;SDS011;3534;49.960;8.018;2022-11-11T05:39:15;13.23;;;7.10;;
6987;SDS011;3534;49.960;8.018;2022-11-11T05:41:43;16.30;;;8.07;;
6987;SDS011;3534;49.960;8.018;2022-11-11T05:44:10;22.93;;;8.90;;
6987;SDS011;3534;49.960;8.018;2022-11-11T05:46:37;13.53;;;7.47;;
6987;SDS011;3534;49.960;8.018;2022-11-11T05:49:04;18.27;;;7.43;;
6987;SDS011;3534;49.960;8.018;2022-11-11T05:51:42;16.80;;;7.40;;
6987;SDS011;3534;49.960;8.018;2022-11-11T05:54:09;17.03;;;7.87;;
6987;SDS011;3534;49.960;8.018;2022-11-11T05:56:37;14.27;;;7.40;;
6987;SDS011;3534;49.960;8.018;2022-11-11T05:59:05;24.27;;;7.63;;
6987;SDS011;3534;49.960;8.018;2022-11-11T06:01:32;23.50;;;7.70;;
6987;SDS011;3534;49.960;8.018;2022-11-11T06:03:59;13.93;;;6.90;;
6987;SDS011;3534;49.960;8.018;2022-11-11T06:06:26;15.30;;;7.40;;
6987;SDS011;3534;49.960;8.018;2022-11-11T06:08:53;13.83;;;7.17;;
6987;SDS011;3534;49.960;8.018;2022-11-11T06:11:20;14.80;;;8.10;;
6987;SDS011;3534;49.960;8.018;2022-11-11T06:13:49;17.27;;;8.00;;
6987;SDS011;3534;49.960;8.018;2022-11-11T06:16:15;30.67;;;8.37;;
6987;SDS011;3534;49.960;8.018;2022-11-11T06:18:42;29.03;;;7.30;;
6987;SDS011;3534;49.960;8.018;2022-11-11T06:21:09;12.07;;;6.33;;
6987;SDS011;3534;49.960;8.018;2022-11-11T06:23:36;11.30;;;6.97;;
6987;SDS011;3534;49.960;8.018;2022-11-11T06:26:03;17.03;;;7.40;;
6987;SDS011;3534;49.960;8.018;2022-11-11T06:28:40;11.03;;;6.53;;
6987;SDS011;3534;49.960;8.018;2022-11-11T06:31:10;11.37;;;6.50;;
6987;SDS011;3534;49.960;8.018;2022-11-11T06:33:38;25.87;;;6.90;;
6987;SDS011;3534;49.960;8.018;2022-11-11T06:36:06;42.83;;;7.17;;
6987;SDS011;3534;49.960;8.018;2022-11-11T06:38:34;15.27;;;6.13;;
6987;SDS011;3534;49.960;8.018;2022-11-11T06:41:00;17.13;;;7.30;;
6987;SDS011;3534;49.960;8.018;2022-11-11T06:43:27;12.60;;;7.03;;
6987;SDS011;3534;49.960;8.018;2022-11-11T06:45:54;23.20;;;7.47;;
6987;SDS011;3534;49.960;8.018;2022-11-11T06:48:23;29.20;;;8.00;;
6987;SDS011;3534;49.960;8.018;2022-11-11T06:50:51;20.73;;;6.23;;
6987;SDS011;3534;49.960;8.018;2022-11-11T06:53:18;27.13;;;6.20;;
6987;SDS011;3534;49.960;8.018;2022-11-11T06:55:47;27.33;;;7.20;;
6987;SDS011;3534;49.960;8.018;2022-11-11T06:58:17;26.27;;;6.87;;
6987;SDS011;3534;49.960;8.018;2022-11-11T07:00:45;19.57;;;7.50;;
6987;SDS011;3534;49.960;8.018;2022-11-11T07:03:14;14.73;;;7.20;;
6987;SDS011;3534;49.960;8.018;2022-11-11T07:05:44;23.30;;;7.33;;
6987;SDS011;3534;49.960;8.018;2022-11-11T07:08:11;28.33;;;6.70;;
6987;SDS011;3534;49.960;8.018;2022-11-11T07:10:39;15.10;;;6.63;;
6987;SDS011;3534;49.960;8.018;2022-11-11T07:13:09;13.03;;;7.40;;
6987;SDS011;3534;49.960;8.018;2022-11-11T07:15:36;10.57;;;5.87;;
6987;SDS011;3534;49.960;8.018;2022-11-11T07:18:03;25.03;;;7.20;;
6987;SDS011;3534;49.960;8.018;2022-11-11T07:20:30;22.27;;;6.83;;
6987;SDS011;3534;49.960;8.018;2022-11-11T07:22:58;12.23;;;6.63;;
6987;SDS011;3534;49.960;8.018;2022-11-11T07:25:25;15.93;;;8.70;;
6987;SDS011;3534;49.960;8.018;2022-11-11T07:27:52;12.30;;;6.67;;
6987;SDS011;3534;49.960;8.018;2022-11-11T07:30:18;14.93;;;7.60;;
6987;SDS011;3534;49.960;8.018;2022-11-11T07:32:45;28.10;;;6.00;;
6987;SDS011;3534;49.960;8.018;2022-11-11T07:35:13;19.00;;;5.47;;
6987;SDS011;3534;49.960;8.018;2022-11-11T07:37:41;29.63;;;6.33;;
6987;SDS011;3534;49.960;8.018;2022-11-11T07:40:10;24.63;;;5.73;;
6987;SDS011;3534;49.960;8.018;2022-11-11T07:42:38;17.60;;;7.00;;
6987;SDS011;3534;49.960;8.018;2022-11-11T07:45:06;17.23;;;6.83;;
6987;SDS011;3534;49.960;8.018;2022-11-11T07:47:35;19.00;;;6.10;;
6987;SDS011;3534;49.960;8.018;2022-11-11T07:50:02;14.50;;;6.63;;
6987;SDS011;3534;49.960;8.018;2022-11-11T07:52:31;10.53;;;6.90;;
6987;SDS011;3534;49.960;8.018;2022-11-11T07:54:58;13.90;;;6.17;;
6987;SDS011;3534;49.960;8.018;2022-11-11T07:57:26;14.80;;;7.20;;
6987;SDS011;3534;49.960;8.018;2022-11-11T07:59:53;11.70;;;6.20;;
6987;SDS011;3534;49.960;8.018;2022-11-11T08:02:20;13.73;;;6.90;;
6987;SDS011;3534;49.960;8.018;2022-11-11T08:04:46;9.13;;;5.90;;
6987;SDS011;3534;49.960;8.018;2022-11-11T08:07:13;19.50;;;5.17;;
6987;SDS011;3534;49.960;8.018;2022-11-11T08:09:40;8.93;;;4.93;;
6987;SDS011;3534;49.960;8.018;2022-11-11T08:12:07;9.80;;;5.80;;
6987;SDS011;3534;49.960;8.018;2022-11-11T08:14:53;8.23;;;5.20;;
6987;SDS011;3534;49.960;8.018;2022-11-11T08:17:20;8.40;;;5.90;;
6987;SDS011;3534;49.960;8.018;2022-11-11T08:19:46;16.90;;;6.40;;
6987;SDS011;3534;49.960;8.018;2022-11-11T08:22:13;11.50;;;6.03;;
6987;SDS011;3534;49.960;8.018;2022-11-11T08:24:40;8.60;;;5.37;;
6987;SDS011;3534;49.960;8.018;2022-11-11T08:27:06;12.17;;;6.07;;
6987;SDS011;3534;49.960;8.018;2022-11-11T08:29:34;8.93;;;5.57;;
6987;SDS011;3534;49.960;8.018;2022-11-11T08:32:02;8.73;;;6.03;;
6987;SDS011;3534;49.960;8.018;2022-11-11T08:34:29;9.50;;;5.77;;
6987;SDS011;3534;49.960;8.018;2022-11-11T08:36:56;10.30;;;6.00;;
6987;SDS011;3534;49.960;8.018;2022-11-11T08:39:22;10.63;;;6.40;;
6987;SDS011;3534;49.960;8.018;2022-11-11T08:41:49;13.70;;;5.70;;
6987;SDS011;3534;49.960;8.018;2022-11-11T08:44:16;7.43;;;5.20;;
6987;SDS011;3534;49.960;8.018;2022-11-11T08:46:42;11.23;;;5.93;;
6987;SDS011;3534;49.960;8.018;2022-11-11T08:49:10;18.70;;;6.80;;
6987;SDS011;3534;49.960;8.018;2022-11-11T08:51:37;10.63;;;5.80;;
6987;SDS011;3534;49.960;8.018;2022-11-11T08:54:04;9.33;;;6.00;;
6987;SDS011;3534;49.960;8.018;2022-11-11T08:56:31;9.60;;;6.90;;
6987;SDS011;3534;49.960;8.018;2022-11-11T08:58:57;9.30;;;5.43;;
6987;SDS011;3534;49.960;8.018;2022-11-11T09:01:24;9.60;;;5.67;;
6987;SDS011;3534;49.960;8.018;2022-11-11T09:03:51;10.40;;;7.20;;
6987;SDS011;3534;49.960;8.018;2022-11-11T09:06:19;11.23;;;5.77;;
6987;SDS011;3534;49.960;8.018;2022-11-11T09:08:46;9.23;;;5.80;;
6987;SDS011;3534;49.960;8.018;2022-11-11T09:11:13;15.83;;;5.50;;
6987;SDS011;3534;49.960;8.018;2022-11-11T09:13:39;10.90;;;4.90;;
6987;SDS011;3534;49.960;8.018;2022-11-11T09:16:06;9.90;;;5.50;;
6987;SDS011;3534;49.960;8.018;2022-11-11T09:18:33;10.90;;;5.83;;
6987;SDS011;3534;49.960;8.018;2022-11-11T09:21:00;9.93;;;5.60;;
6987;SDS011;3534;49.960;8.018;2022-11-11T09:23:28;9.20;;;5.90;;
6987;SDS011;3534;49.960;8.018;2022-11-11T09:25:55;11.03;;;5.60;;
6987;SDS011;3534;49.960;8.018;2022-11-11T09:28:23;11.93;;;5.93;;
6987;SDS011;3534;49.960;8.018;2022-11-11T09:30:49;6.50;;;4.60;;
6987;SDS011;3534;49.960;8.018;2022-11-11T09:33:16;7.83;;;5.20;;
6987;SDS011;3534;49.960;8.018;2022-11-11T09:35:43;5.87;;;4.60;;
6987;SDS011;3534;49.960;8.018;2022-11-11T09:38:10;4.67;;;3.30;;
6987;SDS011;3534;49.960;8.018;2022-11-11T09:41:00;6.67;;;4.50;;
6987;SDS011;3534;49.960;8.018;2022-11-11T09:43:35;6.63;;;4.87;;
6987;SDS011;3534;49.960;8.018;2022-11-11T09:46:15;10.87;;;6.27;;
6987;SDS011;3534;49.960;8.018;2022-11-11T09:48:51;8.27;;;4.20;;
6987;SDS011;3534;49.960;8.018;2022-11-11T09:51:27;6.43;;;3.60;;
6987;SDS011;3534;49.960;8.018;2022-11-11T09:53:58;7.57;;;6.77;;
6987;SDS011;3534;49.960;8.018;2022-11-11T09:56:30;4.67;;;3.83;;
6987;SDS011;3534;49.960;8.018;2022-11-11T09:58:59;5.23;;;3.97;;
6987;SDS011;3534;49.960;8.018;2022-11-11T10:01:32;4.50;;;3.67;;
6987;SDS011;3534;49.960;8.018;2022-11-11T10:04:04;6.00;;;4.23;;
6987;SDS011;3534;49.960;8.018;2022-11-11T10:06:38;5.03;;;3.47;;
6987;SDS011;3534;49.960;8.018;2022-11-11T10:09:06;5.07;;;3.77;;
6987;SDS011;3534;49.960;8.018;2022-11-11T10:11:42;9.00;;;6.70;;
6987;SDS011;3534;49.960;8.018;2022-11-11T10:14:15;9.37;;;5.50;;
6987;SDS011;3534;49.960;8.018;2022-11-11T10:16:44;8.30;;;4.87;;
6987;SDS011;3534;49.960;8.018;2022-11-11T10:19:21;11.13;;;6.00;;
6987;SDS011;3534;49.960;8.018;2022-11-11T10:21:56;7.80;;;5.70;;
6987;SDS011;3534;49.960;8.018;2022-11-11T10:24:27;8.03;;;5.17;;
6987;SDS011;3534;49.960;8.018;2022-11-11T10:27:00;6.50;;;4.60;;
6987;SDS011;3534;49.960;8.018;2022-11-11T10:29:30;8.33;;;4.70;;
6987;SDS011;3534;49.960;8.018;2022-11-11T10:32:09;7.80;;;5.57;;
6987;SDS011;3534;49.960;8.018;2022-11-11T10:34:41;8.47;;;5.00;;
6987;SDS011;3534;49.960;8.018;2022-11-11T10:37:14;11.63;;;5.33;;
6987;SDS011;3534;49.960;8.018;2022-11-11T10:39:47;6.60;;;5.20;;
6987;SDS011;3534;49.960;8.018;2022-11-11T10:42:27;16.30;;;6.33;;
6987;SDS011;3534;49.960;8.018;2022-11-11T10:44:55;8.50;;;5.47;;
6987;SDS011;3534;49.960;8.018;2022-11-11T10:47:28;8.80;;;5.57;;
6987;SDS011;3534;49.960;8.018;2022-11-11T10:50:06;6.57;;;4.37;;
6987;SDS011;3534;49.960;8.018;2022-11-11T10:52:40;7.30;;;4.90;;
6987;SDS011;3534;49.960;8.018;2022-11-11T10:55:12;10.10;;;5.33;;
6987;SDS011;3534;49.960;8.018;2022-11-11T10:57:46;11.90;;;6.10;;
6987;SDS011;3534;49.960;8.018;2022-11-11T11:00:18;9.93;;;5.70;;
6987;SDS011;3534;49.960;8.018;2022-11-11T11:02:48;10.30;;;6.30;;
6987;SDS011;3534;49.960;8.018;2022-11-11T11:05:23;9.47;;;6.00;;
6987;SDS011;3534;49.960;8.018;2022-11-11T11:07:53;10.13;;;5.63;;
6987;SDS011;3534;49.960;8.018;2022-11-11T11:10:24;10.80;;;6.30;;
6987;SDS011;3534;49.960;8.018;2022-11-11T11:12:59;10.90;;;6.43;;
6987;SDS011;3534;49.960;8.018;2022-11-11T11:15:32;11.93;;;6.33;;
6987;SDS011;3534;49.960;8.018;2022-11-11T11:18:04;17.60;;;7.60;;
6987;SDS011;3534;49.960;8.018;2022-11-11T11:20:34;14.97;;;7.17;;
6987;SDS011;3534;49.960;8.018;2022-11-11T11:23:00;12.97;;;7.30;;
6987;SDS011;3534;49.960;8.018;2022-11-11T11:25:28;13.07;;;7.20;;
6987;SDS011;3534;49.960;8.018;2022-11-11T11:28:05;15.93;;;8.77;;
6987;SDS011;3534;49.960;8.018;2022-11-11T11:30:34;12.03;;;8.13;;
6987;SDS011;3534;49.960;8.018;2022-11-11T11:33:02;11.60;;;7.70;;
6987;SDS011;3534;49.960;8.018;2022-11-11T11:35:32;12.53;;;7.90;;
6987;SDS011;3534;49.960;8.018;2022-11-11T11:38:01;13.10;;;10.10;;
6987;SDS011;3534;49.960;8.018;2022-11-11T11:40:43;18.80;;;9.10;;
6987;SDS011;3534;49.960;8.018;2022-11-11T11:43:32;15.70;;;9.63;;
6987;SDS011;3534;49.960;8.018;2022-11-11T11:46:01;21.53;;;10.10;;
6987;SDS011;3534;49.960;8.018;2022-11-11T11:48:43;19.23;;;9.63;;
6987;SDS011;3534;49.960;8.018;2022-11-11T11:51:22;20.63;;;9.53;;
6987;SDS011;3534;49.960;8.018;2022-11-11T11:54:02;12.10;;;8.80;;
6987;SDS011;3534;49.960;8.018;2022-11-11T11:56:40;16.70;;;9.33;;
6987;SDS011;3534;49.960;8.018;2022-11-11T11:59:12;16.90;;;8.90;;
6987;SDS011;3534;49.960;8.018;2022-11-11T12:01:46;15.03;;;9.33;;
6987;SDS011;3534;49.960;8.018;2022-11-11T12:07:37;13.17;;;8.30;;
6987;SDS011;3534;49.960;8.018;2022-11-11T12:10:34;18.30;;;9.90;;
6987;SDS011;3534;49.960;8.018;2022-11-11T12:13:09;14.37;;;8.83;;
6987;SDS011;3534;49.960;8.018;2022-11-11T12:15:54;13.57;;;8.83;;
6987;SDS011;3534;49.960;8.018;2022-11-11T12:18:34;13.90;;;8.27;;
6987;SDS011;3534;49.960;8.018;2022-11-11T12:21:10;12.40;;;8.73;;
6987;SDS011;3534;49.960;8.018;2022-11-11T12:23:47;11.40;;;7.07;;
6987;SDS011;3534;49.960;8.018;2022-11-11T12:26:23;10.57;;;6.80;;
6987;SDS011;3534;49.960;8.018;2022-11-11T12:29:02;18.27;;;8.03;;
6987;SDS011;3534;49.960;8.018;2022-11-11T12:31:41;12.87;;;7.50;;
6987;SDS011;3534;49.960;8.018;2022-11-11T12:34:25;11.53;;;7.57;;
6987;SDS011;3534;49.960;8.018;2022-11-11T12:37:05;8.80;;;6.23;;
6987;SDS011;3534;49.960;8.018;2022-11-11T12:39:47;10.13;;;6.60;;
6987;SDS011;3534;49.960;8.018;2022-11-11T12:42:28;8.93;;;5.90;;
6987;SDS011;3534;49.960;8.018;2022-11-11T12:45:08;8.57;;;6.43;;
6987;SDS011;3534;49.960;8.018;2022-11-11T12:47:45;7.50;;;6.10;;
6987;SDS011;3534;49.960;8.018;2022-11-11T12:50:23;12.00;;;8.23;;
6987;SDS011;3534;49.960;8.018;2022-11-11T12:53:02;8.17;;;5.63;;
6987;SDS011;3534;49.960;8.018;2022-11-11T12:55:40;8.57;;;6.47;;
6987;SDS011;3534;49.960;8.018;2022-11-11T12:58:16;11.30;;;7.00;;
6987;SDS011;3534;49.960;8.018;2022-11-11T13:00:54;8.87;;;6.07;;
6987;SDS011;3534;49.960;8.018;2022-11-11T13:03:49;10.80;;;7.60;;
6987;SDS011;3534;49.960;8.018;2022-11-11T13:06:30;10.30;;;7.40;;
6987;SDS011;3534;49.960;8.018;2022-11-11T13:09:22;12.23;;;7.17;;
6987;SDS011;3534;49.960;8.018;2022-11-11T13:12:09;10.80;;;7.50;;
6987;SDS011;3534;49.960;8.018;2022-11-11T13:14:46;11.60;;;7.80;;
6987;SDS011;3534;49.960;8.018;2022-11-11T13:17:21;11.93;;;7.53;;
6987;SDS011;3534;49.960;8.018;2022-11-11T13:19:50;11.00;;;7.63;;
6987;SDS011;3534;49.960;8.018;2022-11-11T13:22:21;8.30;;;6.80;;
6987;SDS011;3534;49.960;8.018;2022-11-11T13:24:50;10.67;;;7.50;;
6987;SDS011;3534;49.960;8.018;2022-11-11T13:27:22;10.30;;;6.80;;
6987;SDS011;3534;49.960;8.018;2022-11-11T13:30:16;9.93;;;7.10;;
6987;SDS011;3534;49.960;8.018;2022-11-11T13:33:07;10.60;;;8.10;;
6987;SDS011;3534;49.960;8.018;2022-11-11T13:35:40;9.83;;;7.37;;
6987;SDS011;3534;49.960;8.018;2022-11-11T13:38:10;8.60;;;6.93;;
6987;SDS011;3534;49.960;8.018;2022-11-11T13:40:50;11.43;;;7.07;;
6987;SDS011;3534;49.960;8.018;2022-11-11T13:43:20;11.13;;;7.27;;
6987;SDS011;3534;49.960;8.018;2022-11-11T13:45:51;11.47;;;7.20;;
6987;SDS011;3534;49.960;8.018;2022-11-11T13:48:21;10.80;;;8.20;;
6987;SDS011;3534;49.960;8.018;2022-11-11T13:50:52;13.67;;;8.20;;
6987;SDS011;3534;49.960;8.018;2022-11-11T13:53:35;16.40;;;8.30;;
6987;SDS011;3534;49.960;8.018;2022-11-11T13:56:04;14.30;;;8.73;;
6987;SDS011;3534;49.960;8.018;2022-11-11T13:58:32;16.80;;;9.77;;
6987;SDS011;3534;49.960;8.018;2022-11-11T14:01:03;17.13;;;12.50;;
6987;SDS011;3534;49.960;8.018;2022-11-11T14:03:34;28.20;;;12.17;;
6987;SDS011;3534;49.960;8.018;2022-11-11T14:09:00;17.73;;;9.70;;
6987;SDS011;3534;49.960;8.018;2022-11-11T14:11:32;17.57;;;10.50;;
6987;SDS011;3534;49.960;8.018;2022-11-11T14:17:00;22.47;;;13.13;;
6987;SDS011;3534;49.960;8.018;2022-11-11T14:19:30;21.27;;;10.20;;
6987;SDS011;3534;49.960;8.018;2022-11-11T14:21:59;18.57;;;12.37;;
6987;SDS011;3534;49.960;8.018;2022-11-11T14:24:36;21.50;;;11.63;;
6987;SDS011;3534;49.960;8.018;2022-11-11T14:27:13;28.03;;;13.70;;
6987;SDS011;3534;49.960;8.018;2022-11-11T14:29:48;15.93;;;10.93;;
6987;SDS011;3534;49.960;8.018;2022-11-11T14:32:24;16.90;;;12.27;;
6987;SDS011;3534;49.960;8.018;2022-11-11T14:35:12;18.90;;;11.80;;
6987;SDS011;3534;49.960;8.018;2022-11-11T14:37:56;15.97;;;11.10;;
6987;SDS011;3534;49.960;8.018;2022-11-11T14:40:31;18.07;;;10.93;;
6987;SDS011;3534;49.960;8.018;2022-11-11T14:42:59;19.27;;;11.80;;
6987;SDS011;3534;49.960;8.018;2022-11-11T14:45:50;20.53;;;11.10;;
6987;SDS011;3534;49.960;8.018;2022-11-11T14:54:34;21.50;;;14.20;;
6987;SDS011;3534;49.960;8.018;2022-11-11T14:57:09;20.50;;;13.60;;
6987;SDS011;3534;49.960;8.018;2022-11-11T14:59:45;23.03;;;14.77;;
6987;SDS011;3534;49.960;8.018;2022-11-11T15:02:17;25.07;;;14.50;;
6987;SDS011;3534;49.960;8.018;2022-11-11T15:04:50;31.93;;;14.53;;
6987;SDS011;3534;49.960;8.018;2022-11-11T15:16:30;22.87;;;13.50;;
6987;SDS011;3534;49.960;8.018;2022-11-11T15:19:14;22.37;;;12.57;;
6987;SDS011;3534;49.960;8.018;2022-11-11T15:21:55;19.77;;;12.97;;
6987;SDS011;3534;49.960;8.018;2022-11-11T15:24:33;24.87;;;14.70;;
6987;SDS011;3534;49.960;8.018;2022-11-11T15:27:07;21.33;;;13.60;;
6987;SDS011;3534;49.960;8.018;2022-11-11T15:29:55;24.93;;;14.07;;
6987;SDS011;3534;49.960;8.018;2022-11-11T15:32:30;25.37;;;15.70;;
6987;SDS011;3534;49.960;8.018;2022-11-11T15:35:08;22.17;;;14.63;;
6987;SDS011;3534;49.960;8.018;2022-11-11T15:37:52;24.33;;;12.60;;
6987;SDS011;3534;49.960;8.018;2022-11-11T15:40:25;22.23;;;12.70;;
6987;SDS011;3534;49.960;8.018;2022-11-11T15:42:57;18.13;;;12.97;;
6987;SDS011;3534;49.960;8.018;2022-11-11T15:45:27;22.40;;;12.90;;
6987;SDS011;3534;49.960;8.018;2022-11-11T15:47:57;22.03;;;12.97;;
6987;SDS011;3534;49.960;8.018;2022-11-11T15:50:28;21.83;;;12.97;;
6987;SDS011;3534;49.960;8.018;2022-11-11T15:52:58;18.20;;;11.70;;
6987;SDS011;3534;49.960;8.018;2022-11-11T15:55:26;16.40;;;10.20;;